Terminal Aerodrome Forecast
Issued by NWS

Home | Current Version | Previous Version | Graphics & Text | Print | Product List | Glossary On
Versions: 1 2 3 4 5 6 7 8 9 10 11 12 13 14 15 16 17 18 19 20 21 22 23 24 25 26 27 28
128
FTUS43 KGRB 161733
TAFRHI
TAF
KRHI 161733Z 1618/1718 15006KT P6SM BKN120
     FM170600 12003KT 6SM BR FEW003 SCT120
     FM170800 12003KT 3SM BR BKN003
      TEMPO 1708/1712 2SM BR SCT003
     FM171500 15004KT 6SM BR SCT003=

USA.gov is the U.S. government's official web portal to all federal, state and local government web resources and services.